Time;durP1;ratioP1;P1;durP2;ratioP2;P2;SDS_P1;SDS_P2;PMS_P1;PMS_P2;Temp;Humidity;BMP_temperature;BMP_pressure;BME280_temperature;BME280_humidity;BME280_pressure;Samples;Min_cycle;Max_cycle;Signal;HPM_P1;HPM_P2
2022/06/22 00:02:19;;;;;;;10.77;5.97;;;;;;;;;;5136588;27;20039;-47
2022/06/22 00:04:44;;;;;;;10.63;3.63;;;;;;;;;;5138474;27;20585;-44
2022/06/22 00:07:22;;;;;;;6.18;3.08;;;;;;;;;;5137605;27;20409;-43
2022/06/22 00:09:51;;;;;;;11.38;4.55;;;;;;;;;;5138926;27;20100;-47
2022/06/22 00:12:19;;;;;;;7.97;3.43;;;;;;;;;;5141504;27;20038;-46
2022/06/22 00:14:46;;;;;;;9.35;3.13;;;;;;;;;;5139682;27;20350;-46
2022/06/22 00:17:18;;;;;;;6.47;3.35;;;;;;;;;;5139097;27;20061;-46
2022/06/22 00:19:44;;;;;;;9.50;3.90;;;;;;;;;;5135327;27;20661;-48
2022/06/22 00:22:17;;;;;;;18.13;5.20;;;;;;;;;;5139484;27;20106;-46
2022/06/22 00:24:43;;;;;;;8.45;3.72;;;;;;;;;;5139895;27;20492;-47
2022/06/22 00:27:14;;;;;;;12.82;4.43;;;;;;;;;;5117391;27;20039;-45
2022/06/22 00:29:40;;;;;;;16.45;4.18;;;;;;;;;;5137641;27;20128;-45
2022/06/22 00:32:16;;;;;;;12.68;3.50;;;;;;;;;;5118893;27;20043;-48
2022/06/22 00:34:42;;;;;;;9.18;4.25;;;;;;;;;;5135819;27;20058;-46
2022/06/22 00:37:16;;;;;;;16.90;5.38;;;;;;;;;;5138524;27;20047;-43
2022/06/22 00:39:46;;;;;;;16.38;3.78;;;;;;;;;;5139643;27;20065;-44
2022/06/22 00:42:14;;;;;;;11.60;4.30;;;;;;;;;;5135470;27;20041;-45
2022/06/22 00:44:45;;;;;;;16.67;4.95;;;;;;;;;;5135328;27;20058;-46
2022/06/22 00:47:19;;;;;;;10.05;4.72;;;;;;;;;;5134795;27;20070;-46
2022/06/22 00:49:45;;;;;;;8.43;3.75;;;;;;;;;;5137188;27;20039;-45
2022/06/22 00:52:13;;;;;;;5.88;4.00;;;;;;;;;;5139314;27;20405;-48
2022/06/22 00:54:39;;;;;;;29.98;5.53;;;;;;;;;;5139233;27;20047;-44
2022/06/22 00:57:25;;;;;;;22.58;5.20;;;;;;;;;;5137271;27;20046;-45
2022/06/22 01:00:19;;;;;;;7.35;2.45;;;;;;;;;;5140132;27;20039;-47
2022/06/22 01:02:48;;;;;;;16.55;4.47;;;;;;;;;;5125863;27;20046;-43
2022/06/22 01:05:33;;;;;;;13.00;4.85;;;;;;;;;;5137865;27;20477;-44
2022/06/22 01:08:14;;;;;;;10.50;3.92;;;;;;;;;;5143020;27;20074;-43
2022/06/22 01:10:48;;;;;;;12.52;5.90;;;;;;;;;;5140457;27;20536;-43
2022/06/22 01:13:46;;;;;;;8.88;3.60;;;;;;;;;;5132630;27;20076;-43
2022/06/22 01:16:20;;;;;;;14.18;5.35;;;;;;;;;;5100958;27;20053;-43
2022/06/22 01:19:00;;;;;;;13.85;4.82;;;;;;;;;;5136574;27;20085;-46
2022/06/22 01:21:33;;;;;;;10.73;3.50;;;;;;;;;;5134162;27;20057;-45
2022/06/22 01:24:11;;;;;;;9.85;3.72;;;;;;;;;;5135921;27;20051;-49
2022/06/22 01:26:36;;;;;;;10.02;3.70;;;;;;;;;;5135083;27;20054;-45
2022/06/22 01:29:06;;;;;;;11.55;4.10;;;;;;;;;;5138727;27;20055;-43
2022/06/22 01:31:33;;;;;;;10.80;3.03;;;;;;;;;;5124967;27;20039;-43
2022/06/22 01:33:58;;;;;;;9.75;4.15;;;;;;;;;;5138863;27;20042;-44
2022/06/22 01:36:25;;;;;;;12.02;3.65;;;;;;;;;;5134754;27;20041;-44
2022/06/22 01:38:50;;;;;;;16.77;4.45;;;;;;;;;;5136577;27;20508;-44
2022/06/22 01:41:18;;;;;;;13.57;3.75;;;;;;;;;;5138791;27;20052;-43
2022/06/22 01:44:05;;;;;;;10.15;3.58;;;;;;;;;;5135055;27;20046;-44
2022/06/22 01:46:40;;;;;;;8.38;5.40;;;;;;;;;;5135032;27;20763;-46
2022/06/22 01:49:09;;;;;;;16.27;4.70;;;;;;;;;;5138062;27;20051;-45
2022/06/22 01:51:37;;;;;;;7.82;3.50;;;;;;;;;;5137601;27;20095;-47
2022/06/22 01:54:14;;;;;;;9.50;3.80;;;;;;;;;;5134162;27;20038;-48
2022/06/22 01:56:42;;;;;;;14.70;3.33;;;;;;;;;;5138017;27;20047;-47
2022/06/22 01:59:13;;;;;;;21.60;6.60;;;;;;;;;;5136809;27;20055;-48
2022/06/22 02:01:45;;;;;;;6.95;3.22;;;;;;;;;;5135822;27;20038;-45
2022/06/22 02:04:16;;;;;;;14.48;4.90;;;;;;;;;;5134655;27;20051;-46
2022/06/22 02:10:02;;;;;;;18.10;3.10;;;;;;;;;;5135546;27;20455;-42
2022/06/22 02:12:37;;;;;;;8.73;3.75;;;;;;;;;;5138686;27;20039;-43
2022/06/22 02:15:05;;;;;;;8.57;2.95;;;;;;;;;;5138679;27;20103;-44
2022/06/22 02:17:33;;;;;;;29.35;6.10;;;;;;;;;;5137795;27;20138;-46
2022/06/22 02:20:20;;;;;;;7.07;3.90;;;;;;;;;;5142361;27;20047;-46
2022/06/22 02:22:51;;;;;;;16.73;3.33;;;;;;;;;;5139538;27;20111;-43
2022/06/22 02:25:17;;;;;;;12.15;3.92;;;;;;;;;;5134607;27;20323;-46
2022/06/22 02:27:42;;;;;;;14.02;4.13;;;;;;;;;;5135754;27;20046;-50
2022/06/22 02:30:08;;;;;;;24.48;6.72;;;;;;;;;;5137101;27;20039;-44
2022/06/22 02:32:35;;;;;;;11.57;3.88;;;;;;;;;;5118089;27;20042;-46
2022/06/22 02:35:01;;;;;;;12.85;4.28;;;;;;;;;;5131830;27;20074;-46
2022/06/22 02:37:29;;;;;;;10.23;2.67;;;;;;;;;;5138107;27;20070;-45
2022/06/22 02:39:56;;;;;;;7.22;2.92;;;;;;;;;;5135773;27;20043;-43
2022/06/22 02:45:07;;;;;;;8.15;4.57;;;;;;;;;;5133162;27;20074;-44
2022/06/22 02:47:46;;;;;;;9.00;4.35;;;;;;;;;;5137053;27;20046;-48
2022/06/22 02:50:23;;;;;;;14.70;3.72;;;;;;;;;;5136574;27;20195;-45
2022/06/22 02:52:50;;;;;;;11.95;5.25;;;;;;;;;;5139859;27;20068;-47
2022/06/22 02:55:16;;;;;;;8.88;3.25;;;;;;;;;;5135526;27;20046;-46
2022/06/22 02:57:47;;;;;;;9.88;4.10;;;;;;;;;;5134416;27;20276;-43
2022/06/22 03:00:16;;;;;;;12.30;5.18;;;;;;;;;;5137005;27;20045;-46
2022/06/22 03:02:42;;;;;;;26.05;4.97;;;;;;;;;;5135565;27;20046;-45
2022/06/22 03:05:08;;;;;;;15.43;5.70;;;;;;;;;;5135476;27;20047;-46
2022/06/22 03:07:37;;;;;;;13.70;6.65;;;;;;;;;;5132017;27;20045;-45
2022/06/22 03:10:04;;;;;;;12.52;5.43;;;;;;;;;;5135124;27;20137;-45
2022/06/22 03:12:29;;;;;;;20.58;6.82;;;;;;;;;;5132256;27;20035;-47
2022/06/22 03:14:56;;;;;;;13.43;4.80;;;;;;;;;;5133686;27;20757;-45
2022/06/22 03:17:26;;;;;;;25.85;5.43;;;;;;;;;;5136350;27;20043;-48
2022/06/22 03:19:53;;;;;;;24.50;9.87;;;;;;;;;;5135596;27;20047;-45
2022/06/22 03:22:20;;;;;;;29.30;11.75;;;;;;;;;;5135797;27;20494;-46
2022/06/22 03:24:52;;;;;;;25.55;9.95;;;;;;;;;;5135218;27;20099;-45
2022/06/22 03:27:20;;;;;;;33.15;10.85;;;;;;;;;;5136373;27;20675;-47
2022/06/22 03:30:05;;;;;;;31.08;8.05;;;;;;;;;;5139004;27;20112;-44
2022/06/22 03:32:33;;;;;;;28.85;8.55;;;;;;;;;;5139739;27;20628;-47
2022/06/22 03:35:11;;;;;;;37.83;10.88;;;;;;;;;;5138722;27;20032;-44
2022/06/22 03:37:49;;;;;;;29.58;11.18;;;;;;;;;;5139639;27;20440;-44
2022/06/22 03:40:27;;;;;;;33.33;10.18;;;;;;;;;;5137866;27;20035;-45
2022/06/22 03:42:54;;;;;;;46.03;10.70;;;;;;;;;;5136516;27;20039;-45
2022/06/22 03:45:24;;;;;;;17.98;9.15;;;;;;;;;;5134149;27;20039;-45
2022/06/22 03:47:53;;;;;;;36.50;8.82;;;;;;;;;;5141708;27;20051;-41
2022/06/22 03:50:21;;;;;;;30.58;9.15;;;;;;;;;;5142116;27;20556;-45
2022/06/22 03:52:51;;;;;;;24.42;10.27;;;;;;;;;;5141554;27;20050;-46
2022/06/22 03:55:18;;;;;;;28.08;10.20;;;;;;;;;;5140798;27;20069;-43
2022/06/22 03:57:45;;;;;;;24.20;8.75;;;;;;;;;;5142238;27;20051;-46
2022/06/22 04:00:12;;;;;;;36.50;9.57;;;;;;;;;;5143350;27;20687;-45
2022/06/22 04:02:38;;;;;;;44.03;11.52;;;;;;;;;;5141880;27;20041;-44
2022/06/22 04:05:04;;;;;;;34.00;10.48;;;;;;;;;;5142341;27;20126;-46
2022/06/22 04:07:39;;;;;;;28.90;8.75;;;;;;;;;;5140760;27;20082;-43
2022/06/22 04:10:06;;;;;;;26.67;10.52;;;;;;;;;;5140698;27;20047;-49
2022/06/22 04:12:35;;;;;;;16.92;7.18;;;;;;;;;;5141633;27;20034;-44
2022/06/22 04:15:19;;;;;;;29.98;10.80;;;;;;;;;;5141578;27;20047;-45
2022/06/22 04:17:46;;;;;;;37.17;12.43;;;;;;;;;;5140889;27;20134;-43
2022/06/22 04:20:49;;;;;;;33.60;7.43;;;;;;;;;;5126436;27;20054;-45
2022/06/22 04:23:13;;;;;;;32.90;10.27;;;;;;;;;;5140745;27;20061;-45
2022/06/22 04:25:39;;;;;;;26.73;8.25;;;;;;;;;;5140759;27;20158;-45
2022/06/22 04:28:06;;;;;;;26.98;8.60;;;;;;;;;;5139982;27;20219;-44
2022/06/22 04:30:43;;;;;;;20.75;6.85;;;;;;;;;;5137729;27;20482;-47
2022/06/22 04:33:19;;;;;;;21.20;6.28;;;;;;;;;;5139805;27;20092;-43
2022/06/22 04:35:48;;;;;;;17.95;7.63;;;;;;;;;;5140041;27;20031;-46
2022/06/22 04:38:19;;;;;;;29.17;11.05;;;;;;;;;;5138238;27;20046;-45
2022/06/22 04:40:59;;;;;;;26.90;7.18;;;;;;;;;;5136979;27;20131;-46
2022/06/22 04:43:25;;;;;;;23.77;5.28;;;;;;;;;;5139098;27;20582;-45
2022/06/22 04:45:51;;;;;;;29.98;6.35;;;;;;;;;;5140603;27;20134;-43
2022/06/22 04:48:21;;;;;;;31.10;8.40;;;;;;;;;;5141360;27;20630;-43
2022/06/22 04:50:47;;;;;;;;;;;;;;;;;;5142526;27;20138;-44
2022/06/22 04:53:19;;;;;;;24.87;8.53;;;;;;;;;;5144490;27;19945;-50
2022/06/22 04:55:45;;;;;;;37.53;10.40;;;;;;;;;;5140987;27;20039;-45
2022/06/22 04:58:30;;;;;;;42.60;8.35;;;;;;;;;;5138054;27;20049;-51
2022/06/22 05:00:56;;;;;;;20.23;6.22;;;;;;;;;;5130255;27;20054;-47
2022/06/22 05:03:21;;;;;;;30.15;7.07;;;;;;;;;;5138868;27;20043;-48
2022/06/22 05:05:47;;;;;;;17.50;8.18;;;;;;;;;;5141288;27;20042;-45
2022/06/22 05:08:19;;;;;;;37.47;9.00;;;;;;;;;;5141062;27;20126;-47
2022/06/22 05:10:53;;;;;;;34.08;6.95;;;;;;;;;;5144010;27;20099;-47
2022/06/22 05:13:24;;;;;;;8.45;4.30;;;;;;;;;;5138981;27;20039;-44
2022/06/22 05:15:51;;;;;;;13.40;7.22;;;;;;;;;;5139372;27;20126;-48
2022/06/22 05:18:23;;;;;;;26.92;5.35;;;;;;;;;;5143101;27;20102;-45
2022/06/22 05:20:53;;;;;;;23.27;6.85;;;;;;;;;;5140650;27;20050;-46
2022/06/22 05:23:20;;;;;;;13.80;6.90;;;;;;;;;;5139859;27;20047;-47
2022/06/22 05:25:46;;;;;;;20.55;6.70;;;;;;;;;;5141423;27;20043;-44
2022/06/22 05:28:17;;;;;;;11.45;3.95;;;;;;;;;;5138148;27;20058;-47
2022/06/22 05:30:48;;;;;;;45.10;9.38;;;;;;;;;;5138485;27;20401;-49
2022/06/22 05:33:15;;;;;;;39.65;6.18;;;;;;;;;;5135682;27;20043;-48
2022/06/22 05:35:52;;;;;;;18.08;6.25;;;;;;;;;;5135642;27;20440;-44
2022/06/22 05:38:18;;;;;;;29.02;7.93;;;;;;;;;;5139039;27;20150;-47
2022/06/22 05:40:44;;;;;;;17.20;6.97;;;;;;;;;;5136841;27;20462;-48
2022/06/22 05:43:09;;;;;;;11.70;5.68;;;;;;;;;;5138170;27;20443;-45
2022/06/22 05:45:57;;;;;;;20.98;5.65;;;;;;;;;;5139954;27;20043;-45
2022/06/22 05:48:24;;;;;;;20.52;5.40;;;;;;;;;;5138194;27;20156;-50
2022/06/22 05:50:59;;;;;;;17.30;6.45;;;;;;;;;;5139094;27;20053;-47
2022/06/22 05:53:30;;;;;;;22.45;3.25;;;;;;;;;;5137349;27;20548;-49
2022/06/22 05:56:10;;;;;;;23.65;7.07;;;;;;;;;;5141176;27;20038;-46
2022/06/22 05:58:44;;;;;;;19.60;6.00;;;;;;;;;;5139425;27;20099;-44
2022/06/22 06:01:13;;;;;;;25.42;7.40;;;;;;;;;;5135432;27;20034;-43
2022/06/22 06:03:38;;;;;;;13.07;6.47;;;;;;;;;;5141296;27;20038;-47
2022/06/22 06:06:10;;;;;;;11.30;4.90;;;;;;;;;;5140243;27;20081;-49
2022/06/22 06:09:07;;;;;;;13.50;5.75;;;;;;;;;;5137915;27;20035;-42
2022/06/22 06:11:35;;;;;;;10.43;5.00;;;;;;;;;;5098108;27;20118;-45
2022/06/22 06:14:04;;;;;;;20.60;5.53;;;;;;;;;;5139166;27;20038;-48
2022/06/22 06:16:34;;;;;;;39.45;7.55;;;;;;;;;;5138048;27;20043;-45
2022/06/22 06:19:02;;;;;;;14.65;5.60;;;;;;;;;;5134222;27;20053;-45
2022/06/22 06:21:32;;;;;;;18.38;6.68;;;;;;;;;;5133341;27;20038;-45
2022/06/22 06:24:10;;;;;;;19.00;7.03;;;;;;;;;;5139642;27;20047;-59
2022/06/22 06:29:51;;;;;;;16.70;5.40;;;;;;;;;;5140591;27;20469;-59
2022/06/22 06:32:17;;;;;;;17.95;6.50;;;;;;;;;;5137705;27;20409;-60
2022/06/22 06:34:48;;;;;;;14.05;5.70;;;;;;;;;;5137275;27;20043;-60
2022/06/22 06:37:13;;;;;;;20.20;5.75;;;;;;;;;;5139294;27;20046;-60
2022/06/22 06:39:41;;;;;;;23.70;6.72;;;;;;;;;;5138012;27;20039;-60
2022/06/22 06:42:29;;;;;;;32.13;7.95;;;;;;;;;;5135549;27;20071;-60
2022/06/22 06:44:56;;;;;;;34.63;9.70;;;;;;;;;;5138829;27;20039;-59
2022/06/22 06:47:29;;;;;;;18.30;6.10;;;;;;;;;;5141696;27;20041;-59
2022/06/22 06:49:57;;;;;;;26.45;7.57;;;;;;;;;;5137175;27;20082;-58
2022/06/22 06:52:28;;;;;;;28.52;8.07;;;;;;;;;;5138934;27;20050;-53
2022/06/22 06:55:01;;;;;;;10.98;6.22;;;;;;;;;;5140619;27;20512;-57
2022/06/22 06:57:28;;;;;;;17.65;5.85;;;;;;;;;;5141119;27;20055;-53
2022/06/22 06:59:54;;;;;;;14.77;5.13;;;;;;;;;;5138722;27;20050;-52
2022/06/22 07:02:27;;;;;;;13.35;5.32;;;;;;;;;;5138412;27;20054;-56
2022/06/22 07:04:52;;;;;;;21.38;5.78;;;;;;;;;;5141027;27;20058;-58
2022/06/22 07:07:33;;;;;;;27.65;7.50;;;;;;;;;;5138855;27;20043;-58
2022/06/22 07:09:58;;;;;;;;;;;;;;;;;;5140190;27;20125;-58
2022/06/22 07:12:33;;;;;;;15.88;4.57;;;;;;;;;;5139682;27;19961;-57
2022/06/22 07:15:01;;;;;;;41.58;7.32;;;;;;;;;;5137653;27;20115;-57
2022/06/22 07:17:27;;;;;;;9.82;4.28;;;;;;;;;;5137870;27;20731;-58
2022/06/22 07:20:01;;;;;;;24.65;6.20;;;;;;;;;;5140618;27;20041;-59
2022/06/22 07:22:31;;;;;;;13.13;6.32;;;;;;;;;;5139710;27;20051;-59
2022/06/22 07:25:23;;;;;;;15.20;7.18;;;;;;;;;;5142253;27;20050;-57
2022/06/22 07:28:00;;;;;;;13.50;5.25;;;;;;;;;;5117468;27;20076;-58
2022/06/22 07:30:28;;;;;;;11.50;4.95;;;;;;;;;;5139312;27;20038;-58
2022/06/22 07:32:53;;;;;;;36.95;7.43;;;;;;;;;;5139178;27;20041;-58
2022/06/22 07:35:36;;;;;;;24.70;6.50;;;;;;;;;;5143664;27;20050;-58
2022/06/22 07:38:05;;;;;;;10.40;5.70;;;;;;;;;;5139913;27;20050;-58
2022/06/22 07:40:32;;;;;;;13.40;3.33;;;;;;;;;;5141548;27;20069;-58
2022/06/22 07:42:58;;;;;;;17.83;6.47;;;;;;;;;;5142059;27;20057;-58
2022/06/22 07:45:24;;;;;;;10.90;5.38;;;;;;;;;;5142592;27;20039;-56
2022/06/22 07:47:55;;;;;;;19.83;5.47;;;;;;;;;;5144161;27;20046;-57
2022/06/22 07:50:40;;;;;;;21.42;7.00;;;;;;;;;;5121597;27;20030;-57
2022/06/22 07:53:17;;;;;;;16.05;6.40;;;;;;;;;;5141576;27;20058;-57
2022/06/22 07:55:50;;;;;;;16.83;5.57;;;;;;;;;;5121601;27;20522;-57
2022/06/22 07:58:28;;;;;;;20.80;6.63;;;;;;;;;;5141162;27;20050;-57
2022/06/22 08:00:57;;;;;;;22.60;5.57;;;;;;;;;;5139882;27;20120;-57
2022/06/22 08:03:25;;;;;;;12.60;4.15;;;;;;;;;;5140842;27;20127;-57
2022/06/22 08:05:51;;;;;;;16.38;5.10;;;;;;;;;;5143515;27;20211;-57
2022/06/22 08:08:19;;;;;;;19.13;4.13;;;;;;;;;;5142601;27;20087;-58
2022/06/22 08:10:52;;;;;;;18.92;6.65;;;;;;;;;;5140427;27;20035;-54
2022/06/22 08:13:37;;;;;;;14.70;4.95;;;;;;;;;;5141275;27;20050;-54
2022/06/22 08:16:05;;;;;;;22.20;6.32;;;;;;;;;;5141341;27;20118;-54
2022/06/22 08:18:30;;;;;;;19.85;6.28;;;;;;;;;;5140635;27;20151;-54
2022/06/22 08:20:57;;;;;;;24.05;6.05;;;;;;;;;;5138249;27;20101;-55
2022/06/22 08:23:27;;;;;;;12.48;4.60;;;;;;;;;;5138070;27;20077;-54
2022/06/22 08:25:53;;;;;;;18.13;6.03;;;;;;;;;;5138655;27;20107;-51
2022/06/22 08:28:20;;;;;;;13.35;4.00;;;;;;;;;;5142367;27;20568;-54
2022/06/22 08:30:49;;;;;;;21.98;5.32;;;;;;;;;;5141262;27;20187;-54
2022/06/22 08:33:16;;;;;;;17.15;6.47;;;;;;;;;;5140156;27;20038;-54
2022/06/22 08:35:43;;;;;;;19.40;4.88;;;;;;;;;;5140853;27;20062;-54
2022/06/22 08:38:12;;;;;;;15.68;4.22;;;;;;;;;;5139185;27;20130;-54
2022/06/22 08:40:45;;;;;;;11.82;4.65;;;;;;;;;;5139822;27;20086;-55
2022/06/22 08:43:16;;;;;;;10.23;4.03;;;;;;;;;;5143620;27;20049;-52
2022/06/22 08:45:51;;;;;;;8.20;4.05;;;;;;;;;;5140188;27;20483;-53
2022/06/22 08:48:19;;;;;;;10.35;4.43;;;;;;;;;;5139169;27;20078;-54
2022/06/22 08:51:03;;;;;;;12.25;3.33;;;;;;;;;;5142143;27;20039;-55
2022/06/22 08:53:40;;;;;;;23.48;4.70;;;;;;;;;;5139533;27;20051;-55
2022/06/22 08:56:24;;;;;;;9.10;4.35;;;;;;;;;;5142070;27;20114;-53
2022/06/22 08:58:50;;;;;;;12.35;4.13;;;;;;;;;;5138766;27;20680;-54
2022/06/22 09:01:15;;;;;;;12.98;4.53;;;;;;;;;;5140315;27;20035;-55
2022/06/22 09:03:43;;;;;;;20.23;4.50;;;;;;;;;;5140466;27;20077;-54
2022/06/22 09:06:20;;;;;;;19.10;5.80;;;;;;;;;;5142644;27;20039;-55
2022/06/22 09:08:46;;;;;;;15.00;4.55;;;;;;;;;;5140196;27;20066;-54
2022/06/22 09:11:17;;;;;;;14.27;5.43;;;;;;;;;;5141562;27;20042;-55
2022/06/22 09:13:54;;;;;;;9.60;4.03;;;;;;;;;;5141684;27;20099;-54
2022/06/22 09:16:31;;;;;;;18.27;4.25;;;;;;;;;;5138574;27;20054;-56
2022/06/22 09:19:05;;;;;;;19.65;6.22;;;;;;;;;;5138152;27;20043;-51
2022/06/22 09:21:38;;;;;;;11.40;2.70;;;;;;;;;;5138006;27;20073;-53
2022/06/22 09:24:06;;;;;;;14.20;4.35;;;;;;;;;;5140154;27;20058;-53
2022/06/22 09:26:55;;;;;;;11.18;2.53;;;;;;;;;;5139815;27;20069;-53
2022/06/22 09:29:46;;;;;;;15.32;3.63;;;;;;;;;;5137623;27;20039;-55
2022/06/22 09:32:15;;;;;;;8.23;3.78;;;;;;;;;;5107550;27;20095;-55
2022/06/22 09:34:50;;;;;;;8.60;2.42;;;;;;;;;;5141613;27;20149;-54
2022/06/22 09:37:18;;;;;;;15.95;3.08;;;;;;;;;;5135096;27;20225;-54
2022/06/22 09:40:03;;;;;;;15.48;5.45;;;;;;;;;;5136481;27;20050;-55
2022/06/22 09:42:31;;;;;;;18.58;5.65;;;;;;;;;;5140694;27;20043;-53
2022/06/22 09:45:24;;;;;;;12.05;4.70;;;;;;;;;;5136959;27;20577;-53
2022/06/22 09:48:08;;;;;;;14.23;4.75;;;;;;;;;;5136973;27;20049;-52
2022/06/22 09:50:42;;;;;;;16.63;5.80;;;;;;;;;;5138703;27;20039;-53
2022/06/22 09:53:07;;;;;;;14.13;4.28;;;;;;;;;;5136336;27;20031;-56
2022/06/22 09:58:32;;;;;;;13.00;4.10;;;;;;;;;;5136678;27;20418;-54
2022/06/22 10:01:36;;;;;;;8.85;2.72;;;;;;;;;;5138706;27;20051;-54
2022/06/22 10:04:07;;;;;;;15.40;5.25;;;;;;;;;;5048411;28;20048;-54
2022/06/22 10:06:39;;;;;;;18.50;4.60;;;;;;;;;;5030703;28;20060;-55
2022/06/22 10:09:19;;;;;;;20.95;3.83;;;;;;;;;;5091803;27;20077;-51
2022/06/22 10:11:52;;;;;;;17.48;6.60;;;;;;;;;;5136250;27;20091;-53
2022/06/22 10:14:36;;;;;;;10.45;4.10;;;;;;;;;;5139754;27;20502;-54
2022/06/22 10:17:01;;;;;;;15.55;5.18;;;;;;;;;;5136582;27;20438;-54
2022/06/22 10:19:36;;;;;;;6.63;3.83;;;;;;;;;;5138305;27;20038;-55
2022/06/22 10:22:01;;;;;;;7.72;3.75;;;;;;;;;;5142192;27;20045;-53
2022/06/22 10:24:39;;;;;;;15.82;4.40;;;;;;;;;;5121501;27;20072;-53
2022/06/22 10:27:16;;;;;;;7.25;3.63;;;;;;;;;;5142647;27;20464;-51
2022/06/22 10:29:47;;;;;;;13.40;2.72;;;;;;;;;;5138830;27;20167;-51
2022/06/22 10:32:13;;;;;;;7.80;3.85;;;;;;;;;;5141300;27;20560;-52
2022/06/22 10:35:01;;;;;;;20.27;5.63;;;;;;;;;;5134136;27;20172;-54
2022/06/22 10:37:45;;;;;;;15.82;3.92;;;;;;;;;;5138485;27;20069;-55
2022/06/22 10:46:01;;;;;;;14.82;4.28;;;;;;;;;;5138710;27;20091;-55
2022/06/22 10:48:29;;;;;;;13.85;2.88;;;;;;;;;;5138694;27;20042;-54
2022/06/22 10:50:54;;;;;;;9.55;4.80;;;;;;;;;;5142819;27;20038;-55
2022/06/22 10:53:38;;;;;;;11.80;5.20;;;;;;;;;;5136811;27;20035;-56
2022/06/22 10:56:16;;;;;;;31.58;5.95;;;;;;;;;;5137723;27;20502;-55
2022/06/22 10:58:41;;;;;;;12.77;4.50;;;;;;;;;;5137931;27;20564;-54
2022/06/22 11:01:06;;;;;;;32.25;5.47;;;;;;;;;;5137990;27;20119;-55
2022/06/22 11:03:47;;;;;;;10.50;3.35;;;;;;;;;;5138955;27;20079;-56
2022/06/22 11:06:12;;;;;;;12.75;4.45;;;;;;;;;;5141016;27;20046;-56
2022/06/22 11:08:38;;;;;;;12.95;4.25;;;;;;;;;;5136752;27;20077;-55
2022/06/22 11:11:03;;;;;;;10.00;4.25;;;;;;;;;;5136848;27;20069;-54
2022/06/22 11:13:32;;;;;;;21.10;6.88;;;;;;;;;;5134157;27;20518;-56
2022/06/22 11:16:16;;;;;;;16.70;4.70;;;;;;;;;;5137082;27;20046;-54
2022/06/22 11:18:53;;;;;;;13.43;4.25;;;;;;;;;;5136179;27;20043;-52
2022/06/22 11:21:34;;;;;;;10.38;3.30;;;;;;;;;;5135956;27;20051;-56
2022/06/22 11:24:11;;;;;;;19.15;5.30;;;;;;;;;;5140690;27;20057;-56
2022/06/22 11:32:44;;;;;;;9.75;4.30;;;;;;;;;;5138372;27;20061;-55
2022/06/22 11:35:28;;;;;;;23.83;4.90;;;;;;;;;;5136163;27;20598;-55
2022/06/22 11:37:59;;;;;;;23.65;15.57;;;;;;;;;;5138204;27;20067;-56
2022/06/22 11:40:43;;;;;;;11.18;5.30;;;;;;;;;;5139966;27;20103;-56
2022/06/22 11:43:27;;;;;;;9.73;4.60;;;;;;;;;;5135484;27;20605;-56
2022/06/22 11:45:55;;;;;;;23.63;6.00;;;;;;;;;;5135764;27;20129;-56
2022/06/22 11:48:39;;;;;;;20.58;6.20;;;;;;;;;;5139226;27;20043;-59
2022/06/22 11:51:23;;;;;;;11.27;6.43;;;;;;;;;;5140929;27;20047;-56
2022/06/22 11:54:10;;;;;;;24.60;5.70;;;;;;;;;;5132490;27;20114;-54
2022/06/22 11:56:47;;;;;;;19.40;6.07;;;;;;;;;;5135879;27;21434;-55
2022/06/22 11:59:31;;;;;;;9.60;4.28;;;;;;;;;;5136486;27;20042;-53
2022/06/22 12:02:15;;;;;;;7.60;2.90;;;;;;;;;;5138342;27;20043;-55
2022/06/22 12:04:49;;;;;;;11.88;4.07;;;;;;;;;;5140321;27;20516;-55
2022/06/22 12:07:33;;;;;;;15.95;4.57;;;;;;;;;;5142036;27;20129;-55
2022/06/22 12:10:29;;;;;;;10.55;4.07;;;;;;;;;;5140686;27;20079;-55
2022/06/22 12:13:14;;;;;;;23.23;6.40;;;;;;;;;;5143345;27;20114;-55
2022/06/22 12:15:52;;;;;;;16.17;3.83;;;;;;;;;;5141108;27;20137;-54
2022/06/22 12:18:29;;;;;;;16.33;3.45;;;;;;;;;;5143491;27;20071;-55
2022/06/22 12:21:13;;;;;;;12.10;4.30;;;;;;;;;;5138875;27;20039;-56
2022/06/22 12:23:52;;;;;;;6.03;3.30;;;;;;;;;;5144663;27;20078;-56
2022/06/22 12:26:36;;;;;;;8.63;4.38;;;;;;;;;;5138642;27;20499;-54
2022/06/22 12:29:22;;;;;;;26.65;5.30;;;;;;;;;;5127645;27;20095;-56
2022/06/22 12:31:51;;;;;;;9.70;3.63;;;;;;;;;;5142630;27;20103;-56
2022/06/22 12:34:25;;;;;;;11.55;4.55;;;;;;;;;;5139478;27;20038;-56
2022/06/22 12:36:56;;;;;;;8.60;3.58;;;;;;;;;;5140802;27;20050;-54
2022/06/22 12:39:21;;;;;;;4.32;2.35;;;;;;;;;;5142777;27;20647;-55
2022/06/22 12:41:53;;;;;;;10.25;4.15;;;;;;;;;;5141055;27;20062;-54
2022/06/22 12:44:34;;;;;;;10.18;5.10;;;;;;;;;;5140922;27;20042;-54
2022/06/22 12:47:06;;;;;;;14.48;4.47;;;;;;;;;;5136441;27;20069;-54
2022/06/22 12:49:42;;;;;;;10.50;5.18;;;;;;;;;;5140620;27;20811;-55
2022/06/22 12:52:07;;;;;;;16.13;4.65;;;;;;;;;;5139462;27;20041;-56
2022/06/22 12:54:37;;;;;;;9.60;4.05;;;;;;;;;;5141213;27;20046;-53
2022/06/22 12:57:08;;;;;;;7.97;3.60;;;;;;;;;;5139073;27;20745;-56
2022/06/22 12:59:36;;;;;;;7.07;3.17;;;;;;;;;;5135399;27;20060;-56
2022/06/22 13:02:06;;;;;;;11.30;3.28;;;;;;;;;;5139396;27;20070;-54
2022/06/22 13:04:34;;;;;;;5.55;2.83;;;;;;;;;;5139984;27;20093;-56
2022/06/22 13:07:03;;;;;;;18.60;4.57;;;;;;;;;;5140664;27;20051;-53
2022/06/22 13:09:29;;;;;;;14.60;3.75;;;;;;;;;;5141487;27;20044;-55
2022/06/22 13:11:56;;;;;;;16.77;3.67;;;;;;;;;;5137600;27;20073;-53
2022/06/22 13:14:22;;;;;;;12.73;4.35;;;;;;;;;;5138810;27;20043;-55
2022/06/22 13:16:47;;;;;;;15.98;3.00;;;;;;;;;;5136323;27;20502;-55
2022/06/22 13:19:19;;;;;;;10.77;2.65;;;;;;;;;;5137855;27;20460;-56
2022/06/22 13:21:54;;;;;;;10.75;4.43;;;;;;;;;;5139814;27;20046;-54
2022/06/22 13:24:52;;;;;;;8.57;2.83;;;;;;;;;;5140901;27;20082;-55
2022/06/22 13:27:26;;;;;;;28.23;4.25;;;;;;;;;;5105320;27;20082;-55
2022/06/22 13:30:10;;;;;;;12.48;3.70;;;;;;;;;;5141735;27;20066;-54
2022/06/22 13:32:36;;;;;;;10.75;1.80;;;;;;;;;;5143279;27;20043;-56
2022/06/22 13:35:07;;;;;;;16.75;4.50;;;;;;;;;;5137909;27;20577;-55
2022/06/22 13:37:33;;;;;;;11.50;4.35;;;;;;;;;;5139291;27;20034;-54
2022/06/22 13:39:58;;;;;;;10.10;3.15;;;;;;;;;;5140540;27;20045;-57
2022/06/22 13:42:23;;;;;;;9.27;2.95;;;;;;;;;;5140057;27;20119;-53
2022/06/22 13:44:48;;;;;;;12.30;4.38;;;;;;;;;;5135110;27;20035;-56
2022/06/22 13:47:32;;;;;;;6.90;2.88;;;;;;;;;;5137914;27;20042;-58
2022/06/22 13:50:31;;;;;;;11.98;3.60;;;;;;;;;;5138737;27;20675;-57
2022/06/22 13:52:58;;;;;;;10.00;6.20;;;;;;;;;;5140000;27;20146;-59
2022/06/22 13:55:42;;;;;;;12.60;4.35;;;;;;;;;;5138403;27;20058;-57
2022/06/22 13:58:15;;;;;;;12.55;2.97;;;;;;;;;;5136592;27;20058;-57
2022/06/22 14:00:52;;;;;;;4.30;2.10;;;;;;;;;;5135209;27;20100;-58
2022/06/22 14:03:29;;;;;;;7.50;2.85;;;;;;;;;;5135149;27;20035;-57
2022/06/22 14:05:58;;;;;;;22.25;5.97;;;;;;;;;;5141806;27;20594;-58
2022/06/22 14:08:42;;;;;;;13.73;5.35;;;;;;;;;;5136341;27;20090;-56
2022/06/22 14:11:12;;;;;;;7.78;1.58;;;;;;;;;;5136744;27;20493;-48
2022/06/22 14:13:40;;;;;;;7.20;3.05;;;;;;;;;;5134007;27;20100;-39
2022/06/22 14:16:28;;;;;;;12.50;3.70;;;;;;;;;;5137270;27;20038;-39
2022/06/22 14:18:57;;;;;;;11.98;3.70;;;;;;;;;;5138109;27;20047;-42
2022/06/22 14:21:22;;;;;;;9.48;3.28;;;;;;;;;;5134354;27;20043;-44
2022/06/22 14:23:48;;;;;;;9.25;4.53;;;;;;;;;;5135626;27;20079;-48
2022/06/22 14:26:25;;;;;;;6.20;3.22;;;;;;;;;;5139162;27;20547;-44
2022/06/22 14:28:57;;;;;;;12.38;2.85;;;;;;;;;;5134729;27;20054;-45
2022/06/22 14:31:52;;;;;;;11.63;3.15;;;;;;;;;;5135524;27;20485;-46
2022/06/22 14:34:37;;;;;;;13.85;3.78;;;;;;;;;;5034740;27;20041;-46
2022/06/22 14:37:11;;;;;;;10.75;2.97;;;;;;;;;;5136901;27;20456;-51
2022/06/22 14:39:45;;;;;;;11.68;2.85;;;;;;;;;;5137838;27;20074;-47
2022/06/22 14:42:28;;;;;;;46.28;4.57;;;;;;;;;;5136284;27;20161;-48
2022/06/22 14:44:59;;;;;;;7.97;3.50;;;;;;;;;;5136863;27;20067;-45
2022/06/22 14:47:39;;;;;;;15.77;5.20;;;;;;;;;;5138422;27;20050;-46
2022/06/22 14:50:16;;;;;;;10.35;4.00;;;;;;;;;;5140622;27;20147;-49
2022/06/22 14:52:46;;;;;;;6.55;3.42;;;;;;;;;;5133497;27;20057;-46
2022/06/22 14:55:19;;;;;;;7.23;3.13;;;;;;;;;;5137231;27;20113;-45
2022/06/22 14:57:47;;;;;;;12.05;2.75;;;;;;;;;;5136297;27;20119;-45
2022/06/22 15:00:19;;;;;;;15.27;2.85;;;;;;;;;;5134429;27;20054;-45
2022/06/22 15:02:51;;;;;;;25.65;4.53;;;;;;;;;;5137235;27;20050;-43
2022/06/22 15:05:22;;;;;;;15.90;3.88;;;;;;;;;;5134965;27;20054;-46
2022/06/22 15:07:49;;;;;;;;;;;;;;;;;;5138752;27;20047;-46
2022/06/22 15:10:36;;;;;;;6.60;2.05;;;;;;;;;;5134308;27;19998;-47
2022/06/22 15:13:21;;;;;;;8.80;2.45;;;;;;;;;;5133185;27;20178;-46
2022/06/22 15:15:49;;;;;;;14.55;2.95;;;;;;;;;;5136987;27;20043;-46
2022/06/22 15:18:49;;;;;;;5.85;2.80;;;;;;;;;;5135972;27;20050;-50
2022/06/22 15:21:24;;;;;;;11.30;2.65;;;;;;;;;;5129018;27;20094;-46
2022/06/22 15:24:15;;;;;;;9.23;3.50;;;;;;;;;;5137774;27;20103;-48
2022/06/22 15:26:49;;;;;;;10.10;4.35;;;;;;;;;;5136695;27;20501;-47
2022/06/22 15:29:26;;;;;;;14.18;3.78;;;;;;;;;;5135055;27;20159;-46
2022/06/22 15:31:54;;;;;;;5.10;2.28;;;;;;;;;;5134954;27;20119;-42